MiSS Niz — WDF2697 — position and weather

sailwx.info

Track history (hours):
 
Tides and Currents Weather Stations Pressure Air Temp Water Temp Dewpoint Dewpoint Depression Visibility Wind Speed Wind Dir Waves Ship Positions

MiSS Niz

Owner: Marquette Transportation Company Offshore LLC, Jefferson, LA. More information available from US FCC via Universal Licensing System and Coast Guard Vessel Documentation Center.

Last reported at 2017-Sep-21 17:25 UTC. Time now 2017-Sep-24 03:41 UTC.
Position N 29°22' W 090°44'.

Length 22 m; draft 3.5 m.

Type: Tug. MMSI: 367430850.

Date/timePositionNaut miles runAvg speedWind from/ knotsBaromVisibWave heightAir tempDewpointWater temp
2017-Sep-21 17:25N 29°22' W 090°44'3 7.3
2017-Sep-21 17:00N 29°25' W 090°44'4 7.5
2017-Sep-21 16:30N 29°28' W 090°43'4 7.5
2017-Sep-21 16:00N 29°32' W 090°42'3 5.8
2017-Sep-21 15:30N 29°35' W 090°43'2 4.1
2017-Sep-21 15:00N 29°37' W 090°42'0 0.0
2017-Sep-21 14:30N 29°37' W 090°42'0 0.4
2017-Sep-21 14:00N 29°37' W 090°42'0 0.2
2017-Sep-21 13:30N 29°37' W 090°42'0 0.0
2017-Sep-21 13:01N 29°37' W 090°42'0 0.0
2017-Sep-21 12:30N 29°37' W 090°42'0 0.0
2017-Sep-21 12:00N 29°37' W 090°42'0 0.0
2017-Sep-21 11:31N 29°37' W 090°42'0 0.0
2017-Sep-21 11:00N 29°37' W 090°42'0 0.0
2017-Sep-21 10:30N 29°37' W 090°42'0 0.0
2017-Sep-21 10:00N 29°37' W 090°42'0 0.0
2017-Sep-21 09:30N 29°37' W 090°42'0 0.0
2017-Sep-21 09:00N 29°37' W 090°42'0 0.0
2017-Sep-21 08:30N 29°37' W 090°42'0 0.0
2017-Sep-21 08:00N 29°37' W 090°42'0 0.0
2017-Sep-21 07:30N 29°37' W 090°42'0 0.0
2017-Sep-21 07:00N 29°37' W 090°42'0 0.0
2017-Sep-21 06:30N 29°37' W 090°42'0 0.0
2017-Sep-21 06:00N 29°37' W 090°42'0 0.0
2017-Sep-21 05:30N 29°37' W 090°42'0 0.0
2017-Sep-21 05:00N 29°37' W 090°42'0 0.0
2017-Sep-21 04:30N 29°37' W 090°42'0 0.0
2017-Sep-21 04:01N 29°37' W 090°42'0 0.0
2017-Sep-21 03:30N 29°37' W 090°42'0 0.0
2017-Sep-21 03:00N 29°37' W 090°42'0 0.1
2017-Sep-21 02:30N 29°37' W 090°42'2 3.4
2017-Sep-21 02:00N 29°36' W 090°40'0 0.0
2017-Sep-21 01:30N 29°36' W 090°40'0 0.0
2017-Sep-21 01:00N 29°36' W 090°40'0 0.0
2017-Sep-21 00:30N 29°36' W 090°40'2 4.1
2017-Sep-21 00:00N 29°37' W 090°42'2 4.2
2017-Sep-20 23:30N 29°35' W 090°43'1 2.0
2017-Sep-20 23:00N 29°34' W 090°43'1 1.6
2017-Sep-20 22:30N 29°34' W 090°44'3 6.8
2017-Sep-20 22:00N 29°32' W 090°48'65 6.9
2017-Sep-20 12:29N 29°50' W 092°00'4 7.9
2017-Sep-20 12:00N 29°48' W 092°04'4 8.6
2017-Sep-20 11:30N 29°47' W 092°09'3 5.5
2017-Sep-20 11:01N 29°47' W 092°12'2 4.4
2017-Sep-20 10:30N 29°48' W 092°14'4 8.0
2017-Sep-20 10:00N 29°50' W 092°18'42 7.8
2017-Sep-20 04:32N 29°56' W 093°07'2 8.0
2017-Sep-20 04:14N 29°56' W 093°09'2 8.4
2017-Sep-20 04:01N 29°58' W 093°11'4 8.0
2017-Sep-20 03:30N 30°01' W 093°14'4 7.0
2017-Sep-20 03:00N 30°04' W 093°16'2 4.2
2017-Sep-20 02:30N 30°05' W 093°18'0 0.9
2017-Sep-20 02:00N 30°05' W 093°18'0 0.7
2017-Sep-20 01:30N 30°06' W 093°18'1 1.7
2017-Sep-20 01:00N 30°06' W 093°19'4 7.1
2017-Sep-20 00:31N 30°09' W 093°20'4 8.0
2017-Sep-20 00:00N 30°12' W 093°17'2 4.6
2017-Sep-19 23:30N 30°14' W 093°15'1 2.3
2017-Sep-19 23:01N 30°13' W 093°16'2 1.2
2017-Sep-19 21:32N 30°15' W 093°15'0 1.7
2017-Sep-19 21:30N 30°15' W 093°15'0 0.0
2017-Sep-19 20:46N 30°15' W 093°15'0 0.0
2017-Sep-19 20:30N 30°15' W 093°15'0 0.0
2017-Sep-19 20:01N 30°15' W 093°15'0 0.0
2017-Sep-19 19:31N 30°15' W 093°15'0 0.0
2017-Sep-19 19:00N 30°15' W 093°15'0 0.0
2017-Sep-19 18:01N 30°15' W 093°15'0 0.0
2017-Sep-19 17:58N 30°15' W 093°15'0 0.0
2017-Sep-19 15:54N 30°15' W 093°15'0 0.0
2017-Sep-19 15:30N 30°15' W 093°15'0 0.0
2017-Sep-19 15:00N 30°15' W 093°15'0 0.0
2017-Sep-19 14:30N 30°15' W 093°15'0 0.0
2017-Sep-19 14:00N 30°15' W 093°15'0 0.0
2017-Sep-18 22:35N 30°15' W 093°15'0 0.1
2017-Sep-18 22:25N 30°15' W 093°15'1 1.3
2017-Sep-18 22:00N 30°14' W 093°15'1 2.1
2017-Sep-18 21:31N 30°13' W 093°15'1 2.8
2017-Sep-18 21:01N 30°12' W 093°16'2 3.5
2017-Sep-18 20:31N 30°11' W 093°18'0 0.0
2017-Sep-18 20:01N 30°11' W 093°18'0 0.0
2017-Sep-18 19:30N 30°11' W 093°18'0 0.0
2017-Sep-18 19:00N 30°11' W 093°18'0 0.0
2017-Sep-18 18:31N 30°11' W 093°18'0 0.0
2017-Sep-18 18:01N 30°11' W 093°18'0 0.0
2017-Sep-18 17:30N 30°11' W 093°18'0 0.0
2017-Sep-18 17:01N 30°11' W 093°18'0 0.0
2017-Sep-18 16:30N 30°11' W 093°18'0 0.1
2017-Sep-18 16:00N 30°11' W 093°18'0 0.1
2017-Sep-18 15:31N 30°11' W 093°18'0 0.0
2017-Sep-18 15:01N 30°11' W 093°18'0 0.0
2017-Sep-18 14:30N 30°11' W 093°18'0 0.0
2017-Sep-18 14:01N 30°11' W 093°18'0 0.0
2017-Sep-18 13:30N 30°11' W 093°18'0 0.0
2017-Sep-18 13:00N 30°11' W 093°18'0 0.2
2017-Sep-18 12:30N 30°11' W 093°18'0 0.0
2017-Sep-18 12:00N 30°11' W 093°18'0 0.0
2017-Sep-18 11:30N 30°11' W 093°18'0 0.0
2017-Sep-18 11:00N 30°11' W 093°18'0 0.0
2017-Sep-18 10:31N 30°11' W 093°18'0 0.0
2017-Sep-18 10:00N 30°11' W 093°18'0 0.0
2017-Sep-18 09:30N 30°11' W 093°18'0 0.0
2017-Sep-18 09:00N 30°11' W 093°18'0 0.0
2017-Sep-18 08:30N 30°11' W 093°18'0 0.0
2017-Sep-18 08:00N 30°11' W 093°18'0 0.0
2017-Sep-18 07:31N 30°11' W 093°18'0 0.0
2017-Sep-18 07:00N 30°11' W 093°18'0 0.0
2017-Sep-18 06:30N 30°11' W 093°18'0 0.0
2017-Sep-18 06:00N 30°11' W 093°18'0 0.0
2017-Sep-18 05:31N 30°11' W 093°18'0 0.0
2017-Sep-18 05:00N 30°11' W 093°18'0 0.0
2017-Sep-18 04:30N 30°11' W 093°18'0 0.0
2017-Sep-18 04:00N 30°11' W 093°18'0 0.0
2017-Sep-18 03:31N 30°11' W 093°18'0 0.0
2017-Sep-18 03:00N 30°11' W 093°18'0 0.0
2017-Sep-18 02:30N 30°11' W 093°18'0 0.0
2017-Sep-18 02:00N 30°11' W 093°18'0 0.0
2017-Sep-18 01:30N 30°11' W 093°18'0 0.0
2017-Sep-18 01:00N 30°11' W 093°18'0 0.0
2017-Sep-18 00:30N 30°11' W 093°18'0 0.0
2017-Sep-18 00:00N 30°11' W 093°18'2 3.5
2017-Sep-17 23:30N 30°12' W 093°16'3 5.0
2017-Sep-17 23:01N 30°15' W 093°15'0 0.3
2017-Sep-17 22:30N 30°15' W 093°15'0 0.0
2017-Sep-17 22:00N 30°15' W 093°15'0 0.0
2017-Sep-17 21:30N 30°15' W 093°15'0 0.5
2017-Sep-17 21:01N 30°14' W 093°15'0 0.6
2017-Sep-17 20:30N 30°14' W 093°15'1 1.3
2017-Sep-17 20:01N 30°14' W 093°15'2 3.7
2017-Sep-17 19:30N 30°12' W 093°16'2 3.5
2017-Sep-17 19:00N 30°11' W 093°18'0 0.0
2017-Sep-17 18:30N 30°11' W 093°18'0 0.0
2017-Sep-17 18:01N 30°11' W 093°18'0 0.0
2017-Sep-17 17:30N 30°11' W 093°18'0 0.0
2017-Sep-17 17:00N 30°11' W 093°18'0 0.0
2017-Sep-17 16:30N 30°11' W 093°18'0 0.1
2017-Sep-17 16:00N 30°11' W 093°18'0 0.1
2017-Sep-17 15:30N 30°11' W 093°18'0 0.0
2017-Sep-17 15:00N 30°11' W 093°18'0 0.0
2017-Sep-17 14:30N 30°11' W 093°18'0 0.0
2017-Sep-17 14:00N 30°11' W 093°18'0 0.0
2017-Sep-17 13:30N 30°11' W 093°18'0 0.0
2017-Sep-17 13:00N 30°11' W 093°18'0 0.0
2017-Sep-17 12:30N 30°11' W 093°18'0 0.0
2017-Sep-17 12:00N 30°11' W 093°18'0 0.0
2017-Sep-17 11:30N 30°11' W 093°18'0 0.0
2017-Sep-17 11:00N 30°11' W 093°18'0 0.0
2017-Sep-17 10:30N 30°11' W 093°18'0 0.0
2017-Sep-17 10:00N 30°11' W 093°18'0 0.0
2017-Sep-17 09:30N 30°11' W 093°18'0 0.0
2017-Sep-17 09:00N 30°11' W 093°18'0 0.0
2017-Sep-17 08:30N 30°11' W 093°18'0 0.0
2017-Sep-17 08:00N 30°11' W 093°18'0 0.0
2017-Sep-17 07:30N 30°11' W 093°18'0 0.0
2017-Sep-17 07:00N 30°11' W 093°18'0 0.0
2017-Sep-17 06:30N 30°11' W 093°18'0 0.0
2017-Sep-17 06:00N 30°11' W 093°18'0 0.0
2017-Sep-17 05:30N 30°11' W 093°18'0 0.0
2017-Sep-17 04:57N 30°11' W 093°18'0 0.0
2017-Sep-17 04:30N 30°11' W 093°18'0 0.0
2017-Sep-17 04:00N 30°11' W 093°18'0 0.0
2017-Sep-17 03:30N 30°11' W 093°18'0 0.0
2017-Sep-17 03:00N 30°11' W 093°18'0 0.0
2017-Sep-17 02:30N 30°11' W 093°18'0 0.0
2017-Sep-17 02:00N 30°11' W 093°18'0 0.0
2017-Sep-17 01:30N 30°11' W 093°18'0 0.0
2017-Sep-17 01:00N 30°11' W 093°18'0 0.0
2017-Sep-17 00:30N 30°11' W 093°18'0 0.0
2017-Sep-17 00:00N 30°11' W 093°18'0 0.0
2017-Sep-16 23:30N 30°11' W 093°18'0 0.0
2017-Sep-16 23:00N 30°11' W 093°18'0 0.0
2017-Sep-16 22:30N 30°11' W 093°18'0 0.1
2017-Sep-16 22:00N 30°11' W 093°18'0 0.1
2017-Sep-16 21:30N 30°11' W 093°18'0 0.0
2017-Sep-16 21:00N 30°11' W 093°18'0 0.0
2017-Sep-16 20:30N 30°11' W 093°18'0 0.1
2017-Sep-16 20:00N 30°11' W 093°18'0 0.0
2017-Sep-16 19:30N 30°11' W 093°18'0 0.0
2017-Sep-16 19:00N 30°11' W 093°18'0 0.0
2017-Sep-16 18:30N 30°11' W 093°18'0 0.2
2017-Sep-16 18:00N 30°11' W 093°18'0 0.0
2017-Sep-16 17:30N 30°11' W 093°18'0 0.0
2017-Sep-16 17:00N 30°11' W 093°18'0 0.0
2017-Sep-16 16:30N 30°11' W 093°18'0 0.0
2017-Sep-16 16:00N 30°11' W 093°18'0 0.0
2017-Sep-16 15:30N 30°11' W 093°18'0 0.0
2017-Sep-16 15:00N 30°11' W 093°18'0 0.0
2017-Sep-16 14:30N 30°11' W 093°18'0 0.0
2017-Sep-16 14:00N 30°11' W 093°18'0 0.0
2017-Sep-16 13:30N 30°11' W 093°18'0 0.0
2017-Sep-16 13:00N 30°11' W 093°18'0 0.0
2017-Sep-16 12:30N 30°11' W 093°18'0 0.0
2017-Sep-16 12:00N 30°11' W 093°18'0 0.0
2017-Sep-16 11:30N 30°11' W 093°18'0 0.0
2017-Sep-16 11:00N 30°11' W 093°18'0 0.0
2017-Sep-16 10:30N 30°11' W 093°18'0 0.0
2017-Sep-16 10:00N 30°11' W 093°18'0 0.0
2017-Sep-16 09:30N 30°11' W 093°18'0 0.0
2017-Sep-16 09:00N 30°11' W 093°18'0 0.0
2017-Sep-16 08:30N 30°11' W 093°18'0 0.0
2017-Sep-16 08:00N 30°11' W 093°18'0 0.0
2017-Sep-16 07:30N 30°11' W 093°18'0 0.0
2017-Sep-16 07:00N 30°11' W 093°18'0 0.1
2017-Sep-16 06:30N 30°11' W 093°18'2 3.1
2017-Sep-16 06:00N 30°12' W 093°17'1 2.8
2017-Sep-16 05:30N 30°13' W 093°15'0 0.2
2017-Sep-16 05:00N 30°13' W 093°15'0 0.0
2017-Sep-16 04:30N 30°13' W 093°15'0 0.0
2017-Sep-16 04:00N 30°13' W 093°15'0 0.0
2017-Sep-16 03:21N 30°13' W 093°15'0 0.0
2017-Sep-16 02:59N 30°13' W 093°15'0 0.0
2017-Sep-16 02:24N 30°13' W 093°15'0 0.0
2017-Sep-16 02:00N 30°13' W 093°15'0 0.0
2017-Sep-16 01:25N 30°13' W 093°15'0 0.0
2017-Sep-16 00:58N 30°13' W 093°15'0 0.0
2017-Sep-16 00:25N 30°13' W 093°15'0 0.0
2017-Sep-15 23:53N 30°13' W 093°15'0 0.0
2017-Sep-15 23:24N 30°13' W 093°15'0 0.0
2017-Sep-15 23:00N 30°13' W 093°15'0 0.0
2017-Sep-15 22:30N 30°13' W 093°15'0 0.0
2017-Sep-15 22:00N 30°13' W 093°15'0 0.0
2017-Sep-15 21:30N 30°13' W 093°15'0 0.0
2017-Sep-15 21:00N 30°13' W 093°15'0 0.0
2017-Sep-15 20:30N 30°13' W 093°15'0 0.0
2017-Sep-15 20:00N 30°13' W 093°15'0 0.0
2017-Sep-15 19:26N 30°13' W 093°15'0 0.0
2017-Sep-15 19:00N 30°13' W 093°15'0 0.0
2017-Sep-15 18:29N 30°13' W 093°15'0 0.0
2017-Sep-15 17:54N 30°13' W 093°15'0 0.0
2017-Sep-15 17:29N 30°13' W 093°15'0 0.0
2017-Sep-15 16:52N 30°13' W 093°15'0 0.0
2017-Sep-15 16:29N 30°13' W 093°15'0 0.0
2017-Sep-15 16:00N 30°13' W 093°15'0 0.0
2017-Sep-15 15:30N 30°13' W 093°15'0 0.0
2017-Sep-15 14:59N 30°13' W 093°15'0 0.0
2017-Sep-15 14:30N 30°13' W 093°15'0 0.0
2017-Sep-15 13:58N 30°13' W 093°15'0 0.0
2017-Sep-15 13:26N 30°13' W 093°15'0 0.0
2017-Sep-15 12:59N 30°13' W 093°15'0 0.0
2017-Sep-15 10:41N 30°13' W 093°15'0 0.0
2017-Sep-15 03:31N 30°13' W 093°15'0 0.0
2017-Sep-14 21:11N 30°13' W 093°15'0 0.0
2017-Sep-14 20:56N 30°13' W 093°15'0 0.0
2017-Sep-14 20:18N 30°13' W 093°15'0 0.0
2017-Sep-14 19:56N 30°13' W 093°15'0 0.0
2017-Sep-14 19:07N 30°13' W 093°15'0 0.0
2017-Sep-14 18:56N 30°13' W 093°15'0 0.0
2017-Sep-14 18:28N 30°13' W 093°15'0 0.0
2017-Sep-14 17:22N 30°13' W 093°15'0 0.0
2017-Sep-14 16:58N 30°13' W 093°15'0 0.0
2017-Sep-14 16:28N 30°13' W 093°15'0 0.0
2017-Sep-14 15:37N 30°13' W 093°15'0 0.0
2017-Sep-14 15:04N 30°13' W 093°15'0 0.1
2017-Sep-14 14:59N 30°13' W 093°15'0 0.0
2017-Sep-14 14:21N 30°13' W 093°15'0 0.0
2017-Sep-14 14:00N 30°13' W 093°15'0 0.0
2017-Sep-14 13:30N 30°13' W 093°15'0 0.0
2017-Sep-14 12:40N 30°13' W 093°15'0 0.0
2017-Sep-14 12:30N 30°13' W 093°15'0 0.0
2017-Sep-14 11:18N 30°13' W 093°15'0 0.0
2017-Sep-14 11:00N 30°13' W 093°15'0 0.0
2017-Sep-14 10:29N 30°13' W 093°15'0 0.0
2017-Sep-14 10:00N 30°13' W 093°15'0 0.0
2017-Sep-14 09:28N 30°13' W 093°15'0 0.0
2017-Sep-14 08:57N 30°13' W 093°15'0 0.0
2017-Sep-14 08:30N 30°13' W 093°15'0 0.0
2017-Sep-14 07:56N 30°13' W 093°15'0 0.0
2017-Sep-14 07:24N 30°13' W 093°15'0 0.0
2017-Sep-14 06:57N 30°13' W 093°15'0 0.0
2017-Sep-14 04:06N 30°13' W 093°15'0 0.0
2017-Sep-14 04:00N 30°13' W 093°15'0 0.0
2017-Sep-14 03:25N 30°13' W 093°15'0 0.0
2017-Sep-14 00:38N 30°13' W 093°15'0 0.0
2017-Sep-14 00:06N 30°13' W 093°15'0 0.0
2017-Sep-13 23:42N 30°13' W 093°15'0 0.0
2017-Sep-13 23:25N 30°13' W 093°15'0 0.0
2017-Sep-13 22:59N 30°13' W 093°15'0 0.0
2017-Sep-13 22:27N 30°13' W 093°15'0 0.0
2017-Sep-13 22:00N 30°13' W 093°15'0 0.0
2017-Sep-13 21:30N 30°13' W 093°15'0 0.0
2017-Sep-13 20:55N 30°13' W 093°15'0 0.0
2017-Sep-13 20:30N 30°13' W 093°15'2 4.5
2017-Sep-13 20:00N 30°12' W 093°17'4 7.3
2017-Sep-13 19:30N 30°09' W 093°20'3 6.1
2017-Sep-13 19:00N 30°06' W 093°19'1 1.9
2017-Sep-13 18:30N 30°06' W 093°18'1 1.7
2017-Sep-13 18:00N 30°06' W 093°18'1 2.3
2017-Sep-13 17:30N 30°05' W 093°17'0 0.1
2017-Sep-13 17:00N 30°05' W 093°17'0 0.2
2017-Sep-13 16:30N 30°05' W 093°17'0 0.1
2017-Sep-13 16:00N 30°05' W 093°17'1 2.7
2017-Sep-13 15:30N 30°06' W 093°18'0 0.6
2017-Sep-13 15:00N 30°06' W 093°18'2 3.1
2017-Sep-13 14:30N 30°06' W 093°20'4 8.0
2017-Sep-13 14:00N 30°10' W 093°19'4 8.1
2017-Sep-13 13:30N 30°13' W 093°16'0 0.2
2017-Sep-13 13:00N 30°13' W 093°15'0 0.0
2017-Sep-13 12:30N 30°13' W 093°15'0 0.0
2017-Sep-13 12:00N 30°13' W 093°15'0 0.0
2017-Sep-13 11:30N 30°13' W 093°15'0 0.0
2017-Sep-13 11:00N 30°13' W 093°15'0 0.0
2017-Sep-13 10:30N 30°13' W 093°15'0 0.0
2017-Sep-13 10:00N 30°13' W 093°15'0 0.0
2017-Sep-13 09:30N 30°13' W 093°15'0 0.0
2017-Sep-13 09:00N 30°13' W 093°15'0 0.0
2017-Sep-13 08:30N 30°13' W 093°15'0 0.0
2017-Sep-13 08:00N 30°13' W 093°15'0 0.0
2017-Sep-13 07:30N 30°13' W 093°15'0 0.0
2017-Sep-13 07:00N 30°13' W 093°15'0 0.0
2017-Sep-13 06:30N 30°13' W 093°15'0 0.0
2017-Sep-13 06:00N 30°13' W 093°15'0 0.0
2017-Sep-13 05:30N 30°13' W 093°15'0 0.0
2017-Sep-13 05:00N 30°13' W 093°15'0 0.0
2017-Sep-13 04:30N 30°13' W 093°15'0 0.0
2017-Sep-13 04:00N 30°13' W 093°15'0 0.0
2017-Sep-13 03:30N 30°13' W 093°15'0 0.0
2017-Sep-13 03:00N 30°13' W 093°15'0 0.0
2017-Sep-13 02:30N 30°13' W 093°15'0 0.0
2017-Sep-13 01:59N 30°13' W 093°15'0 0.0
2017-Sep-13 01:30N 30°13' W 093°15'0 0.0
2017-Sep-13 01:00N 30°13' W 093°15'0 0.0
2017-Sep-13 00:30N 30°13' W 093°15'0 0.0
2017-Sep-13 00:00N 30°13' W 093°15'0 0.0
2017-Sep-12 23:30N 30°13' W 093°15'0 0.0
2017-Sep-12 23:00N 30°13' W 093°15'0 0.0
2017-Sep-12 22:30N 30°13' W 093°15'0 0.0
2017-Sep-12 22:00N 30°13' W 093°15'0 0.0
2017-Sep-12 21:30N 30°13' W 093°15'0 0.0
2017-Sep-12 21:00N 30°13' W 093°15'0 0.0
2017-Sep-12 20:30N 30°13' W 093°15'0 0.0
2017-Sep-12 20:00N 30°13' W 093°15'0 0.0
2017-Sep-12 19:30N 30°13' W 093°15'0 0.0
2017-Sep-12 19:00N 30°13' W 093°15'0 0.0
2017-Sep-12 18:30N 30°13' W 093°15'0 0.0
2017-Sep-12 18:00N 30°13' W 093°15'0 0.0
2017-Sep-12 17:30N 30°13' W 093°15'0 0.0
2017-Sep-12 17:00N 30°13' W 093°15'0 0.0
2017-Sep-12 16:30N 30°13' W 093°15'0 0.0
2017-Sep-12 16:00N 30°13' W 093°15'0 0.0
2017-Sep-12 15:30N 30°13' W 093°15'0 0.0
2017-Sep-12 14:59N 30°13' W 093°15'0 0.0
2017-Sep-12 14:30N 30°13' W 093°15'0 0.0
2017-Sep-12 14:00N 30°13' W 093°15'0 0.0
2017-Sep-12 06:19N 30°13' W 093°15'0 0.0
2017-Sep-12 06:00N 30°13' W 093°15'0 0.0
2017-Sep-12 05:29N 30°13' W 093°15'0 0.0
2017-Sep-12 04:59N 30°13' W 093°15'0 0.0
2017-Sep-12 04:30N 30°13' W 093°15'0 0.0
2017-Sep-12 04:00N 30°13' W 093°15'0 0.0
2017-Sep-12 03:30N 30°13' W 093°15'0 0.0
2017-Sep-12 02:58N 30°13' W 093°15'0 0.0
2017-Sep-12 02:30N 30°13' W 093°15'0 0.0
2017-Sep-12 02:00N 30°13' W 093°15'0 0.0
2017-Sep-12 01:30N 30°13' W 093°15'0 0.0
2017-Sep-12 01:00N 30°13' W 093°15'0 0.0
2017-Sep-12 00:30N 30°13' W 093°15'0 0.0
2017-Sep-12 00:00N 30°13' W 093°15'0 0.0
2017-Sep-11 23:30N 30°13' W 093°15'0 0.0
2017-Sep-11 23:00N 30°13' W 093°15'0 0.0
2017-Sep-11 22:30N 30°13' W 093°15'0 0.0
2017-Sep-11 22:00N 30°13' W 093°15'0 0.0
2017-Sep-11 21:30N 30°13' W 093°15'0 0.0
2017-Sep-11 21:00N 30°13' W 093°15'0 0.0
2017-Sep-11 20:30N 30°13' W 093°15'0 0.0
2017-Sep-11 20:00N 30°13' W 093°15'0 0.0
2017-Sep-11 19:30N 30°13' W 093°15'0 0.0
2017-Sep-11 19:00N 30°13' W 093°15'0 0.0
2017-Sep-11 18:30N 30°13' W 093°15'0 0.0
2017-Sep-11 18:00N 30°13' W 093°15'0 0.0
2017-Sep-11 17:30N 30°13' W 093°15'  
Track history (hours):
 
Tides and Currents Weather Stations Pressure Air Temp Water Temp Dewpoint Dewpoint Depression Visibility Wind Speed Wind Dir Waves Ship Positions

MiSS Niz

Owner: Marquette Transportation Company Offshore LLC, Jefferson, LA. More information available from US FCC via Universal Licensing System and Coast Guard Vessel Documentation Center.

Last reported at 2017-Sep-21 17:25 UTC. Time now 2017-Sep-24 03:41 UTC.
Position N 29°22' W 090°44'.

Length 22 m; draft 3.5 m.

Type: Tug. MMSI: 367430850.

Date/timePositionNaut miles runAvg speedWind from/ knotsBaromVisibWave heightAir tempDewpointWater temp
2017-Sep-21 17:25N 29°22' W 090°44'3 7.3
2017-Sep-21 17:00N 29°25' W 090°44'4 7.5
2017-Sep-21 16:30N 29°28' W 090°43'4 7.5
2017-Sep-21 16:00N 29°32' W 090°42'3 5.8
2017-Sep-21 15:30N 29°35' W 090°43'2 4.1
2017-Sep-21 15:00N 29°37' W 090°42'0 0.0
2017-Sep-21 14:30N 29°37' W 090°42'0 0.4
2017-Sep-21 14:00N 29°37' W 090°42'0 0.2
2017-Sep-21 13:30N 29°37' W 090°42'0 0.0
2017-Sep-21 13:01N 29°37' W 090°42'0 0.0
2017-Sep-21 12:30N 29°37' W 090°42'0 0.0
2017-Sep-21 12:00N 29°37' W 090°42'0 0.0
2017-Sep-21 11:31N 29°37' W 090°42'0 0.0
2017-Sep-21 11:00N 29°37' W 090°42'0 0.0
2017-Sep-21 10:30N 29°37' W 090°42'0 0.0
2017-Sep-21 10:00N 29°37' W 090°42'0 0.0
2017-Sep-21 09:30N 29°37' W 090°42'0 0.0
2017-Sep-21 09:00N 29°37' W 090°42'0 0.0
2017-Sep-21 08:30N 29°37' W 090°42'0 0.0
2017-Sep-21 08:00N 29°37' W 090°42'0 0.0
2017-Sep-21 07:30N 29°37' W 090°42'0 0.0
2017-Sep-21 07:00N 29°37' W 090°42'0 0.0
2017-Sep-21 06:30N 29°37' W 090°42'0 0.0
2017-Sep-21 06:00N 29°37' W 090°42'0 0.0
2017-Sep-21 05:30N 29°37' W 090°42'0 0.0
2017-Sep-21 05:00N 29°37' W 090°42'0 0.0
2017-Sep-21 04:30N 29°37' W 090°42'0 0.0
2017-Sep-21 04:01N 29°37' W 090°42'0 0.0
2017-Sep-21 03:30N 29°37' W 090°42'0 0.0
2017-Sep-21 03:00N 29°37' W 090°42'0 0.1
2017-Sep-21 02:30N 29°37' W 090°42'2 3.4
2017-Sep-21 02:00N 29°36' W 090°40'0 0.0
2017-Sep-21 01:30N 29°36' W 090°40'0 0.0
2017-Sep-21 01:00N 29°36' W 090°40'0 0.0
2017-Sep-21 00:30N 29°36' W 090°40'2 4.1
2017-Sep-21 00:00N 29°37' W 090°42'2 4.2
2017-Sep-20 23:30N 29°35' W 090°43'1 2.0
2017-Sep-20 23:00N 29°34' W 090°43'1 1.6
2017-Sep-20 22:30N 29°34' W 090°44'3 6.8
2017-Sep-20 22:00N 29°32' W 090°48'65 6.9
2017-Sep-20 12:29N 29°50' W 092°00'4 7.9
2017-Sep-20 12:00N 29°48' W 092°04'4 8.6
2017-Sep-20 11:30N 29°47' W 092°09'3 5.5
2017-Sep-20 11:01N 29°47' W 092°12'2 4.4
2017-Sep-20 10:30N 29°48' W 092°14'4 8.0
2017-Sep-20 10:00N 29°50' W 092°18'42 7.8
2017-Sep-20 04:32N 29°56' W 093°07'2 8.0
2017-Sep-20 04:14N 29°56' W 093°09'2 8.4
2017-Sep-20 04:01N 29°58' W 093°11'4 8.0
2017-Sep-20 03:30N 30°01' W 093°14'4 7.0
2017-Sep-20 03:00N 30°04' W 093°16'2 4.2
2017-Sep-20 02:30N 30°05' W 093°18'0 0.9
2017-Sep-20 02:00N 30°05' W 093°18'0 0.7
2017-Sep-20 01:30N 30°06' W 093°18'1 1.7
2017-Sep-20 01:00N 30°06' W 093°19'4 7.1
2017-Sep-20 00:31N 30°09' W 093°20'4 8.0
2017-Sep-20 00:00N 30°12' W 093°17'2 4.6
2017-Sep-19 23:30N 30°14' W 093°15'1 2.3
2017-Sep-19 23:01N 30°13' W 093°16'2 1.2
2017-Sep-19 21:32N 30°15' W 093°15'0 1.7
2017-Sep-19 21:30N 30°15' W 093°15'0 0.0
2017-Sep-19 20:46N 30°15' W 093°15'0 0.0
2017-Sep-19 20:30N 30°15' W 093°15'0 0.0
2017-Sep-19 20:01N 30°15' W 093°15'0 0.0
2017-Sep-19 19:31N 30°15' W 093°15'0 0.0
2017-Sep-19 19:00N 30°15' W 093°15'0 0.0
2017-Sep-19 18:01N 30°15' W 093°15'0 0.0
2017-Sep-19 17:58N 30°15' W 093°15'0 0.0
2017-Sep-19 15:54N 30°15' W 093°15'0 0.0
2017-Sep-19 15:30N 30°15' W 093°15'0 0.0
2017-Sep-19 15:00N 30°15' W 093°15'0 0.0
2017-Sep-19 14:30N 30°15' W 093°15'0 0.0
2017-Sep-19 14:00N 30°15' W 093°15'0 0.0
2017-Sep-18 22:35N 30°15' W 093°15'0 0.1
2017-Sep-18 22:25N 30°15' W 093°15'1 1.3
2017-Sep-18 22:00N 30°14' W 093°15'1 2.1
2017-Sep-18 21:31N 30°13' W 093°15'1 2.8
2017-Sep-18 21:01N 30°12' W 093°16'2 3.5
2017-Sep-18 20:31N 30°11' W 093°18'0 0.0
2017-Sep-18 20:01N 30°11' W 093°18'0 0.0
2017-Sep-18 19:30N 30°11' W 093°18'0 0.0
2017-Sep-18 19:00N 30°11' W 093°18'0 0.0
2017-Sep-18 18:31N 30°11' W 093°18'0 0.0
2017-Sep-18 18:01N 30°11' W 093°18'0 0.0
2017-Sep-18 17:30N 30°11' W 093°18'0 0.0
2017-Sep-18 17:01N 30°11' W 093°18'0 0.0
2017-Sep-18 16:30N 30°11' W 093°18'0 0.1
2017-Sep-18 16:00N 30°11' W 093°18'0 0.1
2017-Sep-18 15:31N 30°11' W 093°18'0 0.0
2017-Sep-18 15:01N 30°11' W 093°18'0 0.0
2017-Sep-18 14:30N 30°11' W 093°18'0 0.0
2017-Sep-18 14:01N 30°11' W 093°18'0 0.0
2017-Sep-18 13:30N 30°11' W 093°18'0 0.0
2017-Sep-18 13:00N 30°11' W 093°18'0 0.2
2017-Sep-18 12:30N 30°11' W 093°18'0 0.0
2017-Sep-18 12:00N 30°11' W 093°18'0 0.0
2017-Sep-18 11:30N 30°11' W 093°18'0 0.0
2017-Sep-18 11:00N 30°11' W 093°18'0 0.0
2017-Sep-18 10:31N 30°11' W 093°18'0 0.0
2017-Sep-18 10:00N 30°11' W 093°18'0 0.0
2017-Sep-18 09:30N 30°11' W 093°18'0 0.0
2017-Sep-18 09:00N 30°11' W 093°18'0 0.0
2017-Sep-18 08:30N 30°11' W 093°18'0 0.0
2017-Sep-18 08:00N 30°11' W 093°18'0 0.0
2017-Sep-18 07:31N 30°11' W 093°18'0 0.0
2017-Sep-18 07:00N 30°11' W 093°18'0 0.0
2017-Sep-18 06:30N 30°11' W 093°18'0 0.0
2017-Sep-18 06:00N 30°11' W 093°18'0 0.0
2017-Sep-18 05:31N 30°11' W 093°18'0 0.0
2017-Sep-18 05:00N 30°11' W 093°18'0 0.0
2017-Sep-18 04:30N 30°11' W 093°18'0 0.0
2017-Sep-18 04:00N 30°11' W 093°18'0 0.0
2017-Sep-18 03:31N 30°11' W 093°18'0 0.0
2017-Sep-18 03:00N 30°11' W 093°18'0 0.0
2017-Sep-18 02:30N 30°11' W 093°18'0 0.0
2017-Sep-18 02:00N 30°11' W 093°18'0 0.0
2017-Sep-18 01:30N 30°11' W 093°18'0 0.0
2017-Sep-18 01:00N 30°11' W 093°18'0 0.0
2017-Sep-18 00:30N 30°11' W 093°18'0 0.0
2017-Sep-18 00:00N 30°11' W 093°18'2 3.5
2017-Sep-17 23:30N 30°12' W 093°16'3 5.0
2017-Sep-17 23:01N 30°15' W 093°15'0 0.3
2017-Sep-17 22:30N 30°15' W 093°15'0 0.0
2017-Sep-17 22:00N 30°15' W 093°15'0 0.0
2017-Sep-17 21:30N 30°15' W 093°15'0 0.5
2017-Sep-17 21:01N 30°14' W 093°15'0 0.6
2017-Sep-17 20:30N 30°14' W 093°15'1 1.3
2017-Sep-17 20:01N 30°14' W 093°15'2 3.7
2017-Sep-17 19:30N 30°12' W 093°16'2 3.5
2017-Sep-17 19:00N 30°11' W 093°18'0 0.0
2017-Sep-17 18:30N 30°11' W 093°18'0 0.0
2017-Sep-17 18:01N 30°11' W 093°18'0 0.0
2017-Sep-17 17:30N 30°11' W 093°18'0 0.0
2017-Sep-17 17:00N 30°11' W 093°18'0 0.0
2017-Sep-17 16:30N 30°11' W 093°18'0 0.1
2017-Sep-17 16:00N 30°11' W 093°18'0 0.1
2017-Sep-17 15:30N 30°11' W 093°18'0 0.0
2017-Sep-17 15:00N 30°11' W 093°18'0 0.0
2017-Sep-17 14:30N 30°11' W 093°18'0 0.0
2017-Sep-17 14:00N 30°11' W 093°18'0 0.0
2017-Sep-17 13:30N 30°11' W 093°18'0 0.0
2017-Sep-17 13:00N 30°11' W 093°18'0 0.0
2017-Sep-17 12:30N 30°11' W 093°18'0 0.0
2017-Sep-17 12:00N 30°11' W 093°18'0 0.0
2017-Sep-17 11:30N 30°11' W 093°18'0 0.0
2017-Sep-17 11:00N 30°11' W 093°18'0 0.0
2017-Sep-17 10:30N 30°11' W 093°18'0 0.0
2017-Sep-17 10:00N 30°11' W 093°18'0 0.0
2017-Sep-17 09:30N 30°11' W 093°18'0 0.0
2017-Sep-17 09:00N 30°11' W 093°18'0 0.0
2017-Sep-17 08:30N 30°11' W 093°18'0 0.0
2017-Sep-17 08:00N 30°11' W 093°18'0 0.0
2017-Sep-17 07:30N 30°11' W 093°18'0 0.0
2017-Sep-17 07:00N 30°11' W 093°18'0 0.0
2017-Sep-17 06:30N 30°11' W 093°18'0 0.0
2017-Sep-17 06:00N 30°11' W 093°18'0 0.0
2017-Sep-17 05:30N 30°11' W 093°18'0 0.0
2017-Sep-17 04:57N 30°11' W 093°18'0 0.0
2017-Sep-17 04:30N 30°11' W 093°18'0 0.0
2017-Sep-17 04:00N 30°11' W 093°18'0 0.0
2017-Sep-17 03:30N 30°11' W 093°18'0 0.0
2017-Sep-17 03:00N 30°11' W 093°18'0 0.0
2017-Sep-17 02:30N 30°11' W 093°18'0 0.0
2017-Sep-17 02:00N 30°11' W 093°18'0 0.0
2017-Sep-17 01:30N 30°11' W 093°18'0 0.0
2017-Sep-17 01:00N 30°11' W 093°18'0 0.0
2017-Sep-17 00:30N 30°11' W 093°18'0 0.0
2017-Sep-17 00:00N 30°11' W 093°18'0 0.0
2017-Sep-16 23:30N 30°11' W 093°18'0 0.0
2017-Sep-16 23:00N 30°11' W 093°18'0 0.0
2017-Sep-16 22:30N 30°11' W 093°18'0 0.1
2017-Sep-16 22:00N 30°11' W 093°18'0 0.1
2017-Sep-16 21:30N 30°11' W 093°18'0 0.0
2017-Sep-16 21:00N 30°11' W 093°18'0 0.0
2017-Sep-16 20:30N 30°11' W 093°18'0 0.1
2017-Sep-16 20:00N 30°11' W 093°18'0 0.0
2017-Sep-16 19:30N 30°11' W 093°18'0 0.0
2017-Sep-16 19:00N 30°11' W 093°18'0 0.0
2017-Sep-16 18:30N 30°11' W 093°18'0 0.2
2017-Sep-16 18:00N 30°11' W 093°18'0 0.0
2017-Sep-16 17:30N 30°11' W 093°18'0 0.0
2017-Sep-16 17:00N 30°11' W 093°18'0 0.0
2017-Sep-16 16:30N 30°11' W 093°18'0 0.0
2017-Sep-16 16:00N 30°11' W 093°18'0 0.0
2017-Sep-16 15:30N 30°11' W 093°18'0 0.0
2017-Sep-16 15:00N 30°11' W 093°18'0 0.0
2017-Sep-16 14:30N 30°11' W 093°18'0 0.0
2017-Sep-16 14:00N 30°11' W 093°18'0 0.0
2017-Sep-16 13:30N 30°11' W 093°18'0 0.0
2017-Sep-16 13:00N 30°11' W 093°18'0 0.0
2017-Sep-16 12:30N 30°11' W 093°18'0 0.0
2017-Sep-16 12:00N 30°11' W 093°18'0 0.0
2017-Sep-16 11:30N 30°11' W 093°18'0 0.0
2017-Sep-16 11:00N 30°11' W 093°18'0 0.0
2017-Sep-16 10:30N 30°11' W 093°18'0 0.0
2017-Sep-16 10:00N 30°11' W 093°18'0 0.0
2017-Sep-16 09:30N 30°11' W 093°18'0 0.0
2017-Sep-16 09:00N 30°11' W 093°18'0 0.0
2017-Sep-16 08:30N 30°11' W 093°18'0 0.0
2017-Sep-16 08:00N 30°11' W 093°18'0 0.0
2017-Sep-16 07:30N 30°11' W 093°18'0 0.0
2017-Sep-16 07:00N 30°11' W 093°18'0 0.1
2017-Sep-16 06:30N 30°11' W 093°18'2 3.1
2017-Sep-16 06:00N 30°12' W 093°17'1 2.8
2017-Sep-16 05:30N 30°13' W 093°15'0 0.2
2017-Sep-16 05:00N 30°13' W 093°15'0 0.0
2017-Sep-16 04:30N 30°13' W 093°15'0 0.0
2017-Sep-16 04:00N 30°13' W 093°15'0 0.0
2017-Sep-16 03:21N 30°13' W 093°15'0 0.0
2017-Sep-16 02:59N 30°13' W 093°15'0 0.0
2017-Sep-16 02:24N 30°13' W 093°15'0 0.0
2017-Sep-16 02:00N 30°13' W 093°15'0 0.0
2017-Sep-16 01:25N 30°13' W 093°15'0 0.0
2017-Sep-16 00:58N 30°13' W 093°15'0 0.0
2017-Sep-16 00:25N 30°13' W 093°15'0 0.0
2017-Sep-15 23:53N 30°13' W 093°15'0 0.0
2017-Sep-15 23:24N 30°13' W 093°15'0 0.0
2017-Sep-15 23:00N 30°13' W 093°15'0 0.0
2017-Sep-15 22:30N 30°13' W 093°15'0 0.0
2017-Sep-15 22:00N 30°13' W 093°15'0 0.0
2017-Sep-15 21:30N 30°13' W 093°15'0 0.0
2017-Sep-15 21:00N 30°13' W 093°15'0 0.0
2017-Sep-15 20:30N 30°13' W 093°15'0 0.0
2017-Sep-15 20:00N 30°13' W 093°15'0 0.0
2017-Sep-15 19:26N 30°13' W 093°15'0 0.0
2017-Sep-15 19:00N 30°13' W 093°15'0 0.0
2017-Sep-15 18:29N 30°13' W 093°15'0 0.0
2017-Sep-15 17:54N 30°13' W 093°15'0 0.0
2017-Sep-15 17:29N 30°13' W 093°15'0 0.0
2017-Sep-15 16:52N 30°13' W 093°15'0 0.0
2017-Sep-15 16:29N 30°13' W 093°15'0 0.0
2017-Sep-15 16:00N 30°13' W 093°15'0 0.0
2017-Sep-15 15:30N 30°13' W 093°15'0 0.0
2017-Sep-15 14:59N 30°13' W 093°15'0 0.0
2017-Sep-15 14:30N 30°13' W 093°15'0 0.0
2017-Sep-15 13:58N 30°13' W 093°15'0 0.0
2017-Sep-15 13:26N 30°13' W 093°15'0 0.0
2017-Sep-15 12:59N 30°13' W 093°15'0 0.0
2017-Sep-15 10:41N 30°13' W 093°15'0 0.0
2017-Sep-15 03:31N 30°13' W 093°15'0 0.0
2017-Sep-14 21:11N 30°13' W 093°15'0 0.0
2017-Sep-14 20:56N 30°13' W 093°15'0 0.0
2017-Sep-14 20:18N 30°13' W 093°15'0 0.0
2017-Sep-14 19:56N 30°13' W 093°15'0 0.0
2017-Sep-14 19:07N 30°13' W 093°15'0 0.0
2017-Sep-14 18:56N 30°13' W 093°15'0 0.0
2017-Sep-14 18:28N 30°13' W 093°15'0 0.0
2017-Sep-14 17:22N 30°13' W 093°15'0 0.0
2017-Sep-14 16:58N 30°13' W 093°15'0 0.0
2017-Sep-14 16:28N 30°13' W 093°15'0 0.0
2017-Sep-14 15:37N 30°13' W 093°15'0 0.0
2017-Sep-14 15:04N 30°13' W 093°15'0 0.1
2017-Sep-14 14:59N 30°13' W 093°15'0 0.0
2017-Sep-14 14:21N 30°13' W 093°15'0 0.0
2017-Sep-14 14:00N 30°13' W 093°15'0 0.0
2017-Sep-14 13:30N 30°13' W 093°15'0 0.0
2017-Sep-14 12:40N 30°13' W 093°15'0 0.0
2017-Sep-14 12:30N 30°13' W 093°15'0 0.0
2017-Sep-14 11:18N 30°13' W 093°15'0 0.0
2017-Sep-14 11:00N 30°13' W 093°15'0 0.0
2017-Sep-14 10:29N 30°13' W 093°15'0 0.0
2017-Sep-14 10:00N 30°13' W 093°15'0 0.0
2017-Sep-14 09:28N 30°13' W 093°15'0 0.0
2017-Sep-14 08:57N 30°13' W 093°15'0 0.0
2017-Sep-14 08:30N 30°13' W 093°15'0 0.0
2017-Sep-14 07:56N 30°13' W 093°15'0 0.0
2017-Sep-14 07:24N 30°13' W 093°15'0 0.0
2017-Sep-14 06:57N 30°13' W 093°15'0 0.0
2017-Sep-14 04:06N 30°13' W 093°15'0 0.0
2017-Sep-14 04:00N 30°13' W 093°15'0 0.0
2017-Sep-14 03:25N 30°13' W 093°15'0 0.0
2017-Sep-14 00:38N 30°13' W 093°15'0 0.0
2017-Sep-14 00:06N 30°13' W 093°15'0 0.0
2017-Sep-13 23:42N 30°13' W 093°15'0 0.0
2017-Sep-13 23:25N 30°13' W 093°15'0 0.0
2017-Sep-13 22:59N 30°13' W 093°15'0 0.0
2017-Sep-13 22:27N 30°13' W 093°15'0 0.0
2017-Sep-13 22:00N 30°13' W 093°15'0 0.0
2017-Sep-13 21:30N 30°13' W 093°15'0 0.0
2017-Sep-13 20:55N 30°13' W 093°15'0 0.0
2017-Sep-13 20:30N 30°13' W 093°15'2 4.5
2017-Sep-13 20:00N 30°12' W 093°17'4 7.3
2017-Sep-13 19:30N 30°09' W 093°20'3 6.1
2017-Sep-13 19:00N 30°06' W 093°19'1 1.9
2017-Sep-13 18:30N 30°06' W 093°18'1 1.7
2017-Sep-13 18:00N 30°06' W 093°18'1 2.3
2017-Sep-13 17:30N 30°05' W 093°17'0 0.1
2017-Sep-13 17:00N 30°05' W 093°17'0 0.2
2017-Sep-13 16:30N 30°05' W 093°17'0 0.1
2017-Sep-13 16:00N 30°05' W 093°17'1 2.7
2017-Sep-13 15:30N 30°06' W 093°18'0 0.6
2017-Sep-13 15:00N 30°06' W 093°18'2 3.1
2017-Sep-13 14:30N 30°06' W 093°20'4 8.0
2017-Sep-13 14:00N 30°10' W 093°19'4 8.1
2017-Sep-13 13:30N 30°13' W 093°16'0 0.2
2017-Sep-13 13:00N 30°13' W 093°15'0 0.0
2017-Sep-13 12:30N 30°13' W 093°15'0 0.0
2017-Sep-13 12:00N 30°13' W 093°15'0 0.0
2017-Sep-13 11:30N 30°13' W 093°15'0 0.0
2017-Sep-13 11:00N 30°13' W 093°15'0 0.0
2017-Sep-13 10:30N 30°13' W 093°15'0 0.0
2017-Sep-13 10:00N 30°13' W 093°15'0 0.0
2017-Sep-13 09:30N 30°13' W 093°15'0 0.0
2017-Sep-13 09:00N 30°13' W 093°15'0 0.0
2017-Sep-13 08:30N 30°13' W 093°15'0 0.0
2017-Sep-13 08:00N 30°13' W 093°15'0 0.0
2017-Sep-13 07:30N 30°13' W 093°15'0 0.0
2017-Sep-13 07:00N 30°13' W 093°15'0 0.0
2017-Sep-13 06:30N 30°13' W 093°15'0 0.0
2017-Sep-13 06:00N 30°13' W 093°15'0 0.0
2017-Sep-13 05:30N 30°13' W 093°15'0 0.0
2017-Sep-13 05:00N 30°13' W 093°15'0 0.0
2017-Sep-13 04:30N 30°13' W 093°15'0 0.0
2017-Sep-13 04:00N 30°13' W 093°15'0 0.0
2017-Sep-13 03:30N 30°13' W 093°15'0 0.0
2017-Sep-13 03:00N 30°13' W 093°15'0 0.0
2017-Sep-13 02:30N 30°13' W 093°15'0 0.0
2017-Sep-13 01:59N 30°13' W 093°15'0 0.0
2017-Sep-13 01:30N 30°13' W 093°15'0 0.0
2017-Sep-13 01:00N 30°13' W 093°15'0 0.0
2017-Sep-13 00:30N 30°13' W 093°15'0 0.0
2017-Sep-13 00:00N 30°13' W 093°15'0 0.0
2017-Sep-12 23:30N 30°13' W 093°15'0 0.0
2017-Sep-12 23:00N 30°13' W 093°15'0 0.0
2017-Sep-12 22:30N 30°13' W 093°15'0 0.0
2017-Sep-12 22:00N 30°13' W 093°15'0 0.0
2017-Sep-12 21:30N 30°13' W 093°15'0 0.0
2017-Sep-12 21:00N 30°13' W 093°15'0 0.0
2017-Sep-12 20:30N 30°13' W 093°15'0 0.0
2017-Sep-12 20:00N 30°13' W 093°15'0 0.0
2017-Sep-12 19:30N 30°13' W 093°15'0 0.0
2017-Sep-12 19:00N 30°13' W 093°15'0 0.0
2017-Sep-12 18:30N 30°13' W 093°15'0 0.0
2017-Sep-12 18:00N 30°13' W 093°15'0 0.0
2017-Sep-12 17:30N 30°13' W 093°15'0 0.0
2017-Sep-12 17:00N 30°13' W 093°15'0 0.0
2017-Sep-12 16:30N 30°13' W 093°15'0 0.0
2017-Sep-12 16:00N 30°13' W 093°15'0 0.0
2017-Sep-12 15:30N 30°13' W 093°15'0 0.0
2017-Sep-12 14:59N 30°13' W 093°15'0 0.0
2017-Sep-12 14:30N 30°13' W 093°15'0 0.0
2017-Sep-12 14:00N 30°13' W 093°15'0 0.0
2017-Sep-12 06:19N 30°13' W 093°15'0 0.0
2017-Sep-12 06:00N 30°13' W 093°15'0 0.0
2017-Sep-12 05:29N 30°13' W 093°15'0 0.0
2017-Sep-12 04:59N 30°13' W 093°15'0 0.0
2017-Sep-12 04:30N 30°13' W 093°15'0 0.0
2017-Sep-12 04:00N 30°13' W 093°15'0 0.0
2017-Sep-12 03:30N 30°13' W 093°15'0 0.0
2017-Sep-12 02:58N 30°13' W 093°15'0 0.0
2017-Sep-12 02:30N 30°13' W 093°15'0 0.0
2017-Sep-12 02:00N 30°13' W 093°15'0 0.0
2017-Sep-12 01:30N 30°13' W 093°15'0 0.0
2017-Sep-12 01:00N 30°13' W 093°15'0 0.0
2017-Sep-12 00:30N 30°13' W 093°15'0 0.0
2017-Sep-12 00:00N 30°13' W 093°15'0 0.0
2017-Sep-11 23:30N 30°13' W 093°15'0 0.0
2017-Sep-11 23:00N 30°13' W 093°15'0 0.0
2017-Sep-11 22:30N 30°13' W 093°15'0 0.0
2017-Sep-11 22:00N 30°13' W 093°15'0 0.0
2017-Sep-11 21:30N 30°13' W 093°15'0 0.0
2017-Sep-11 21:00N 30°13' W 093°15'0 0.0
2017-Sep-11 20:30N 30°13' W 093°15'0 0.0
2017-Sep-11 20:00N 30°13' W 093°15'0 0.0
2017-Sep-11 19:30N 30°13' W 093°15'0 0.0
2017-Sep-11 19:00N 30°13' W 093°15'0 0.0
2017-Sep-11 18:30N 30°13' W 093°15'0 0.0
2017-Sep-11 18:00N 30°13' W 093°15'0 0.0
2017-Sep-11 17:30N 30°13' W 093°15'  

Dump ship's entire track history